createdAt,value
2023-05-22T00:02:05.590Z,12.43
2023-05-22T00:04:51.456Z,12.68
2023-05-22T00:07:39.471Z,12.75
2023-05-22T00:10:25.827Z,12.02
2023-05-22T00:13:12.475Z,12.27
2023-05-22T00:15:58.530Z,11.98
2023-05-22T00:18:45.138Z,12.40
2023-05-22T00:21:35.113Z,12.25
2023-05-22T00:24:22.076Z,12.77
2023-05-22T00:27:08.470Z,12.20
2023-05-22T00:29:54.604Z,13.38
2023-05-22T00:32:41.491Z,13.27
2023-05-22T00:35:29.942Z,13.52
2023-05-22T00:38:35.673Z,13.30
2023-05-22T00:41:22.374Z,13.48
2023-05-22T00:44:08.394Z,12.98
2023-05-22T00:46:54.656Z,12.80
2023-05-22T00:49:42.469Z,13.10
2023-05-22T00:52:28.550Z,13.43
2023-05-22T00:55:16.905Z,13.70
2023-05-22T00:58:08.229Z,13.70
2023-05-22T01:00:55.537Z,13.80
2023-05-22T01:03:45.153Z,13.50
2023-05-22T01:06:32.344Z,14.40
2023-05-22T01:09:18.911Z,14.45
2023-05-22T01:12:12.144Z,13.80
2023-05-22T01:15:03.232Z,14.00
2023-05-22T01:18:12.554Z,13.95
2023-05-22T01:21:47.540Z,13.68
2023-05-22T01:24:55.049Z,13.80
2023-05-22T01:28:19.715Z,14.27
2023-05-22T01:31:09.278Z,14.10
2023-05-22T01:33:58.006Z,14.23
2023-05-22T01:36:48.659Z,13.88
2023-05-22T01:39:36.580Z,13.60
2023-05-22T01:42:23.871Z,13.30
2023-05-22T01:45:11.846Z,13.93
2023-05-22T01:47:59.181Z,13.82
2023-05-22T01:50:48.612Z,13.93
2023-05-22T01:53:52.107Z,15.05
2023-05-22T01:56:55.405Z,15.25
2023-05-22T01:59:49.909Z,14.50
2023-05-22T02:02:41.732Z,14.45
2023-05-22T02:05:31.166Z,14.20
2023-05-22T02:08:18.707Z,15.23
2023-05-22T02:11:05.367Z,14.40
2023-05-22T02:13:52.593Z,14.50
2023-05-22T02:16:39.304Z,15.07
2023-05-22T02:19:26.427Z,14.70
2023-05-22T02:22:15.899Z,14.20
2023-05-22T02:25:02.683Z,14.75
2023-05-22T02:27:49.846Z,14.32
2023-05-22T02:30:36.957Z,14.90
2023-05-22T02:33:23.557Z,14.13
2023-05-22T02:36:12.065Z,14.98
2023-05-22T02:38:59.946Z,14.98
2023-05-22T02:41:46.306Z,15.40
2023-05-22T02:44:33.169Z,15.27
2023-05-22T02:47:19.168Z,14.27
2023-05-22T02:50:07.532Z,14.75
2023-05-22T02:52:54.356Z,15.55
2023-05-22T02:55:40.829Z,15.38
2023-05-22T02:58:27.128Z,15.23
2023-05-22T03:01:14.130Z,15.65
2023-05-22T03:04:00.209Z,15.73
2023-05-22T03:06:47.265Z,15.57
2023-05-22T03:09:33.660Z,15.38
2023-05-22T03:12:20.908Z,14.52
2023-05-22T03:15:07.978Z,15.05
2023-05-22T03:17:54.401Z,14.68
2023-05-22T03:20:41.088Z,14.70
2023-05-22T03:23:27.573Z,14.77
2023-05-22T03:26:14.803Z,14.40
2023-05-22T03:29:00.858Z,15.70
2023-05-22T03:31:48.533Z,14.45
2023-05-22T03:34:34.766Z,14.50
2023-05-22T03:37:23.079Z,14.57
2023-05-22T03:40:10.628Z,15.50
2023-05-22T03:42:57.379Z,15.18
2023-05-22T03:45:44.513Z,16.02
2023-05-22T03:48:31.784Z,16.30
2023-05-22T03:51:20.117Z,15.55
2023-05-22T03:54:07.141Z,16.23
2023-05-22T03:56:55.176Z,16.17
2023-05-22T03:59:41.336Z,16.35
2023-05-22T04:02:30.625Z,16.23
2023-05-22T04:05:17.199Z,15.63
2023-05-22T04:08:04.101Z,15.32
2023-05-22T04:10:50.189Z,15.18
2023-05-22T04:13:36.437Z,15.55
2023-05-22T04:16:24.829Z,15.18
2023-05-22T04:19:10.908Z,15.20
2023-05-22T04:21:58.848Z,14.57
2023-05-22T04:24:49.176Z,14.75
2023-05-22T04:27:38.205Z,14.70
2023-05-22T04:30:25.720Z,14.95
2023-05-22T04:33:13.141Z,15.43
2023-05-22T04:36:00.619Z,15.07
2023-05-22T04:38:47.749Z,14.65
2023-05-22T04:41:34.437Z,15.10
2023-05-22T04:44:23.939Z,15.15
2023-05-22T04:47:12.229Z,15.68
2023-05-22T04:50:00.221Z,14.73
2023-05-22T04:52:47.435Z,14.90
2023-05-22T04:55:34.250Z,14.32
2023-05-22T04:58:21.626Z,15.02
2023-05-22T05:01:07.643Z,14.68
2023-05-22T05:03:54.483Z,14.57
2023-05-22T05:06:40.861Z,14.73
2023-05-22T05:09:27.012Z,14.98
2023-05-22T05:12:14.299Z,14.35
2023-05-22T05:15:01.515Z,14.82
2023-05-22T05:17:47.655Z,14.82
2023-05-22T05:20:34.729Z,14.50
2023-05-22T05:23:23.106Z,14.70
2023-05-22T05:26:09.868Z,13.90
2023-05-22T05:28:57.124Z,14.70
2023-05-22T05:31:48.478Z,14.30
2023-05-22T05:37:55.775Z,14.15
2023-05-22T05:40:45.232Z,13.70
2023-05-22T05:43:31.829Z,13.98
2023-05-22T05:46:24.576Z,14.27
2023-05-22T05:49:11.936Z,14.18
2023-05-22T05:51:59.682Z,13.77
2023-05-22T05:54:49.270Z,13.25
2023-05-22T05:57:39.443Z,13.25
2023-05-22T06:00:28.638Z,12.40
2023-05-22T06:03:19.673Z,13.85
2023-05-22T06:06:27.496Z,13.80
2023-05-22T06:09:28.722Z,13.02
2023-05-22T06:12:28.879Z,13.77
2023-05-22T06:15:14.768Z,12.70
2023-05-22T06:18:02.963Z,13.45
2023-05-22T06:20:49.233Z,11.82
2023-05-22T06:23:35.085Z,12.85
2023-05-22T06:26:22.453Z,13.45
2023-05-22T06:29:10.267Z,12.95
2023-05-22T06:31:57.038Z,12.40
2023-05-22T06:34:45.651Z,12.95
2023-05-22T06:37:36.085Z,13.07
2023-05-22T06:40:22.645Z,13.10
2023-05-22T06:43:12.444Z,13.07
2023-05-22T06:46:19.177Z,12.77
2023-05-22T06:49:11.896Z,13.50
2023-05-22T06:52:10.268Z,12.23
2023-05-22T06:55:04.308Z,12.05
2023-05-22T06:57:56.628Z,11.75
2023-05-22T07:00:44.708Z,12.02
2023-05-22T07:03:40.849Z,10.98
2023-05-22T07:06:51.084Z,11.75
2023-05-22T07:09:38.774Z,10.95
2023-05-22T07:12:26.367Z,11.40
2023-05-22T07:15:15.067Z,11.50
2023-05-22T07:18:06.913Z,11.60
2023-05-22T07:20:55.387Z,10.73
2023-05-22T07:23:43.094Z,10.25
2023-05-22T07:26:30.427Z,10.70
2023-05-22T07:29:25.821Z,10.05
2023-05-22T07:32:13.909Z,10.77
2023-05-22T07:35:01.869Z,10.35
2023-05-22T07:37:47.966Z,10.57
2023-05-22T07:40:35.942Z,10.90
2023-05-22T07:43:22.000Z,11.38
2023-05-22T07:46:09.633Z,10.70
2023-05-22T07:49:05.070Z,11.40
2023-05-22T07:51:52.695Z,12.20
2023-05-22T07:54:42.440Z,11.45
2023-05-22T07:57:31.050Z,10.60
2023-05-22T08:00:23.149Z,10.45
2023-05-22T08:03:09.386Z,10.70
2023-05-22T08:05:55.724Z,10.70
2023-05-22T08:08:41.542Z,11.05
2023-05-22T08:11:29.144Z,12.10
2023-05-22T08:14:15.917Z,12.63
2023-05-22T08:17:02.709Z,12.30
2023-05-22T08:19:48.940Z,12.00
2023-05-22T08:22:35.706Z,12.07
2023-05-22T08:25:22.032Z,11.77
2023-05-22T08:28:07.869Z,11.32
2023-05-22T08:30:55.746Z,10.88
2023-05-22T08:33:41.756Z,11.60
2023-05-22T08:36:31.859Z,10.95
2023-05-22T08:39:19.153Z,10.63
2023-05-22T08:42:06.395Z,11.07
2023-05-22T08:44:53.015Z,10.93
2023-05-22T08:47:41.252Z,11.07
2023-05-22T08:50:28.789Z,10.10
2023-05-22T08:53:16.962Z,9.35
2023-05-22T08:56:05.517Z,10.27
2023-05-22T08:58:52.844Z,10.13
2023-05-22T09:01:40.052Z,10.68
2023-05-22T09:04:28.328Z,9.75
2023-05-22T09:07:15.064Z,9.65
2023-05-22T09:10:05.183Z,10.80
2023-05-22T09:13:09.748Z,10.38
2023-05-22T09:16:00.939Z,10.77
2023-05-22T09:18:47.571Z,10.18
2023-05-22T09:21:37.233Z,10.40
2023-05-22T09:24:23.786Z,10.70
2023-05-22T09:27:11.556Z,10.50
2023-05-22T09:29:59.497Z,10.00
2023-05-22T09:32:46.853Z,10.02
2023-05-22T09:35:37.744Z,10.75
2023-05-22T09:38:29.715Z,10.30
2023-05-22T09:41:22.732Z,10.55
2023-05-22T09:44:16.354Z,10.00
2023-05-22T09:47:04.402Z,10.27
2023-05-22T09:49:50.637Z,10.15
2023-05-22T09:52:38.818Z,10.20
2023-05-22T09:55:26.498Z,9.50
2023-05-22T09:58:15.140Z,10.10
2023-05-22T10:01:01.762Z,10.00
2023-05-22T10:03:52.590Z,10.27
2023-05-22T10:06:39.916Z,10.23
2023-05-22T10:09:31.535Z,9.55
2023-05-22T10:12:20.805Z,8.80
2023-05-22T10:15:09.379Z,9.18
2023-05-22T10:17:56.625Z,9.27
2023-05-22T10:20:43.765Z,9.40
2023-05-22T10:23:31.428Z,8.70
2023-05-22T10:26:19.529Z,10.00
2023-05-22T10:29:18.006Z,9.70
2023-05-22T10:32:21.738Z,9.40
2023-05-22T10:35:30.799Z,9.07
2023-05-22T10:38:22.642Z,8.52
2023-05-22T10:41:11.237Z,9.25
2023-05-22T10:43:58.024Z,9.40
2023-05-22T10:46:50.839Z,9.57
2023-05-22T10:49:39.185Z,9.60
2023-05-22T10:52:26.201Z,8.88
2023-05-22T10:55:13.907Z,8.80
2023-05-22T10:58:13.083Z,8.65
2023-05-22T11:01:19.935Z,8.40
2023-05-22T11:04:16.062Z,8.88
2023-05-22T11:07:08.107Z,8.70
2023-05-22T11:10:00.513Z,9.23
2023-05-22T11:12:47.370Z,8.48
2023-05-22T11:15:33.514Z,8.52
2023-05-22T11:18:21.012Z,8.35
2023-05-22T11:21:10.143Z,8.45
2023-05-22T11:24:01.128Z,8.05
2023-05-22T11:27:02.023Z,8.18
2023-05-22T11:29:49.900Z,9.18
2023-05-22T11:32:37.686Z,8.32
2023-05-22T11:35:24.642Z,8.60
2023-05-22T11:38:11.675Z,8.15
2023-05-22T11:40:59.015Z,8.98
2023-05-22T11:43:45.382Z,8.85
2023-05-22T11:46:31.815Z,8.38
2023-05-22T11:49:18.270Z,8.82
2023-05-22T11:52:04.965Z,8.00
2023-05-22T11:54:52.664Z,8.52
2023-05-22T11:57:39.581Z,8.30
2023-05-22T12:00:26.290Z,7.72
2023-05-22T12:03:14.026Z,8.18
2023-05-22T12:06:01.939Z,8.40
2023-05-22T12:08:48.730Z,7.65
2023-05-22T12:11:36.452Z,8.32
2023-05-22T12:14:31.432Z,8.15
2023-05-22T12:17:18.983Z,7.85
2023-05-22T12:20:06.341Z,9.02
2023-05-22T12:22:56.992Z,8.85
2023-05-22T12:28:36.635Z,8.63
2023-05-22T12:31:25.076Z,8.27
2023-05-22T12:34:11.805Z,9.20
2023-05-22T12:36:58.021Z,8.65
2023-05-22T12:40:00.579Z,8.90
2023-05-22T12:42:48.092Z,9.30
2023-05-22T12:45:35.043Z,9.38
2023-05-22T12:48:22.067Z,9.82
2023-05-22T12:51:12.187Z,8.93
2023-05-22T12:54:00.228Z,8.00
2023-05-22T12:56:46.007Z,8.48
2023-05-22T12:59:34.174Z,8.75
2023-05-22T13:02:20.287Z,8.02
2023-05-22T13:05:07.146Z,9.00
2023-05-22T13:07:53.362Z,9.65
2023-05-22T13:10:40.405Z,9.50
2023-05-22T13:13:27.103Z,9.93
2023-05-22T13:16:13.905Z,9.90
2023-05-22T13:19:00.182Z,8.50
2023-05-22T13:21:46.206Z,8.65
2023-05-22T13:24:32.251Z,9.88
2023-05-22T13:27:18.908Z,9.20
2023-05-22T13:30:06.766Z,9.00
2023-05-22T13:32:52.761Z,9.57
2023-05-22T13:35:40.671Z,9.88
2023-05-22T13:38:27.774Z,9.60
2023-05-22T13:41:16.033Z,8.98
2023-05-22T13:44:02.029Z,8.90
2023-05-22T13:46:49.109Z,9.60
2023-05-22T13:49:35.444Z,10.35
2023-05-22T13:52:22.533Z,9.05
2023-05-22T13:55:09.778Z,8.98
2023-05-22T13:57:55.944Z,10.40
2023-05-22T14:00:43.130Z,10.05
2023-05-22T14:03:29.332Z,10.45
2023-05-22T14:06:15.569Z,10.05
2023-05-22T14:09:01.669Z,9.20
2023-05-22T14:11:48.354Z,9.85
2023-05-22T14:14:34.325Z,10.05
2023-05-22T14:17:21.309Z,9.77
2023-05-22T14:20:09.154Z,9.60
2023-05-22T14:22:57.859Z,10.32
2023-05-22T14:25:45.855Z,9.55
2023-05-22T14:28:32.374Z,9.73
2023-05-22T14:31:18.797Z,10.18
2023-05-22T14:34:06.441Z,9.70
2023-05-22T14:36:55.768Z,9.82
2023-05-22T14:39:42.291Z,9.57
2023-05-22T14:42:29.324Z,9.55
2023-05-22T14:45:15.397Z,8.50
2023-05-22T14:48:02.068Z,8.65
2023-05-22T14:50:50.664Z,9.82
2023-05-22T14:53:37.131Z,9.20
2023-05-22T14:56:24.815Z,9.23
2023-05-22T14:59:11.829Z,9.77
2023-05-22T15:01:59.305Z,8.98
2023-05-22T15:04:46.313Z,9.50
2023-05-22T15:10:23.112Z,10.00
2023-05-22T15:13:10.525Z,9.68
2023-05-22T15:15:58.209Z,10.60
2023-05-22T15:18:44.858Z,9.50
2023-05-22T15:21:37.754Z,9.57
2023-05-22T15:24:24.088Z,10.20
2023-05-22T15:27:12.465Z,9.60
2023-05-22T15:30:01.674Z,9.98
2023-05-22T15:32:48.096Z,9.27
2023-05-22T15:35:34.248Z,10.27
2023-05-22T15:38:21.472Z,9.77
2023-05-22T15:41:07.646Z,10.27
2023-05-22T15:43:54.489Z,10.52
2023-05-22T15:46:42.756Z,10.45
2023-05-22T15:49:31.206Z,9.68
2023-05-22T15:52:18.269Z,10.40
2023-05-22T15:55:06.024Z,10.10
2023-05-22T15:58:08.345Z,9.90
2023-05-22T16:00:56.162Z,9.52
2023-05-22T16:03:47.048Z,9.02
2023-05-22T16:06:33.928Z,9.57
2023-05-22T16:09:20.251Z,10.00
2023-05-22T16:12:07.134Z,9.80
2023-05-22T16:14:59.452Z,10.10
2023-05-22T16:17:47.010Z,11.20
2023-05-22T16:20:33.886Z,10.82
2023-05-22T16:23:21.716Z,10.27
2023-05-22T16:26:08.115Z,9.77
2023-05-22T16:28:57.789Z,10.07
2023-05-22T16:31:43.848Z,9.98
2023-05-22T16:34:32.213Z,10.05
2023-05-22T16:37:18.128Z,9.77
2023-05-22T16:40:05.969Z,10.18
2023-05-22T16:42:51.898Z,9.85
2023-05-22T16:45:38.290Z,9.85
2023-05-22T16:48:24.383Z,9.90
2023-05-22T16:51:12.077Z,9.18
2023-05-22T16:53:58.287Z,9.35
2023-05-22T16:56:44.623Z,9.80
2023-05-22T16:59:31.044Z,10.50
2023-05-22T17:02:17.582Z,9.82
2023-05-22T17:05:05.127Z,10.27
2023-05-22T17:07:51.415Z,10.13
2023-05-22T17:10:37.646Z,10.00
2023-05-22T17:13:24.733Z,10.40
2023-05-22T17:16:10.841Z,10.07
2023-05-22T17:18:57.596Z,9.63
2023-05-22T17:21:44.997Z,9.82
2023-05-22T17:24:31.008Z,9.70
2023-05-22T17:27:31.666Z,9.48
2023-05-22T17:30:22.008Z,9.90
2023-05-22T17:33:09.167Z,9.13
2023-05-22T17:35:55.340Z,9.40
2023-05-22T17:38:41.657Z,9.43
2023-05-22T17:41:33.628Z,9.13
2023-05-22T17:44:20.592Z,9.50
2023-05-22T17:47:06.912Z,9.05
2023-05-22T17:49:53.709Z,9.90
2023-05-22T17:52:41.271Z,9.43
2023-05-22T17:55:28.653Z,10.00
2023-05-22T17:58:15.920Z,10.00
2023-05-22T18:01:07.189Z,9.10
2023-05-22T18:03:53.324Z,10.35
2023-05-22T18:06:40.512Z,9.93
2023-05-22T18:09:26.814Z,10.60
2023-05-22T18:12:30.135Z,9.48
2023-05-22T18:15:18.320Z,12.98
2023-05-22T18:18:04.455Z,10.80
2023-05-22T18:20:51.730Z,9.18
2023-05-22T18:23:37.616Z,9.40
2023-05-22T18:26:23.725Z,10.10
2023-05-22T18:29:10.152Z,12.82
2023-05-22T18:31:56.808Z,11.40
2023-05-22T18:34:44.193Z,10.40
2023-05-22T18:37:39.900Z,10.38
2023-05-22T18:40:28.604Z,9.93
2023-05-22T18:43:16.125Z,10.88
2023-05-22T18:46:03.131Z,10.52
2023-05-22T18:48:50.055Z,9.77
2023-05-22T18:51:39.179Z,9.85
2023-05-22T18:54:27.525Z,10.00
2023-05-22T18:57:14.039Z,10.52
2023-05-22T19:00:00.212Z,10.20
2023-05-22T19:02:47.897Z,10.43
2023-05-22T19:05:40.745Z,10.32
2023-05-22T19:08:27.885Z,10.55
2023-05-22T19:11:19.906Z,11.23
2023-05-22T19:14:05.843Z,13.27
2023-05-22T19:16:53.080Z,13.15
2023-05-22T19:19:39.110Z,10.85
2023-05-22T19:22:25.957Z,10.85
2023-05-22T19:25:12.398Z,9.93
2023-05-22T19:27:59.411Z,10.00
2023-05-22T19:30:46.247Z,9.90
2023-05-22T19:33:33.961Z,9.88
2023-05-22T19:36:24.240Z,11.23
2023-05-22T19:39:13.323Z,13.00
2023-05-22T19:41:59.916Z,10.38
2023-05-22T19:44:48.248Z,9.63
2023-05-22T19:47:34.180Z,9.93
2023-05-22T19:50:20.388Z,8.98
2023-05-22T19:53:07.791Z,8.93
2023-05-22T19:55:53.791Z,9.02
2023-05-22T19:58:40.800Z,9.43
2023-05-22T20:01:27.004Z,9.65
2023-05-22T20:04:13.761Z,9.80
2023-05-22T20:06:59.848Z,10.38
2023-05-22T20:09:47.499Z,10.27
2023-05-22T20:12:34.073Z,10.02
2023-05-22T20:15:22.901Z,10.18
2023-05-22T20:18:10.999Z,10.55
2023-05-22T20:20:58.663Z,10.13
2023-05-22T20:23:44.424Z,10.25
2023-05-22T20:26:37.532Z,10.35
2023-05-22T20:29:23.734Z,10.60
2023-05-22T20:32:11.656Z,11.10
2023-05-22T20:35:01.051Z,10.70
2023-05-22T20:37:47.877Z,10.02
2023-05-22T20:40:34.754Z,9.50
2023-05-22T20:43:21.070Z,9.90
2023-05-22T20:46:07.155Z,10.30
2023-05-22T20:48:54.586Z,10.07
2023-05-22T20:51:40.676Z,8.98
2023-05-22T20:54:31.178Z,10.00
2023-05-22T20:57:17.436Z,10.57
2023-05-22T21:00:06.330Z,10.00
2023-05-22T21:02:52.511Z,9.90
2023-05-22T21:05:40.665Z,10.23
2023-05-22T21:08:27.409Z,10.07
2023-05-22T21:11:15.198Z,10.20
2023-05-22T21:14:01.278Z,10.60
2023-05-22T21:16:48.016Z,9.85
2023-05-22T21:19:34.511Z,9.82
2023-05-22T21:22:21.204Z,9.48
2023-05-22T21:25:08.092Z,10.50
2023-05-22T21:27:55.085Z,10.30
2023-05-22T21:30:41.340Z,10.85
2023-05-22T21:33:28.022Z,11.05
2023-05-22T21:36:14.247Z,11.25
2023-05-22T21:39:01.364Z,11.57
2023-05-22T21:41:49.363Z,11.48
2023-05-22T21:44:37.937Z,11.48
2023-05-22T21:47:23.993Z,10.93
2023-05-22T21:50:11.422Z,10.68
2023-05-22T21:52:57.225Z,10.77
2023-05-22T21:55:44.253Z,10.50
2023-05-22T21:58:30.358Z,10.23
2023-05-22T22:01:18.207Z,10.40
2023-05-22T22:04:04.806Z,9.90
2023-05-22T22:06:51.494Z,9.93
2023-05-22T22:09:37.623Z,9.82
2023-05-22T22:12:25.560Z,10.20
2023-05-22T22:15:12.263Z,9.75
2023-05-22T22:18:03.618Z,10.00
2023-05-22T22:20:54.120Z,10.15
2023-05-22T22:23:42.130Z,10.02
2023-05-22T22:26:30.802Z,9.63
2023-05-22T22:29:17.650Z,10.38
2023-05-22T22:32:03.880Z,10.27
2023-05-22T22:34:54.424Z,9.90
2023-05-22T22:37:40.725Z,10.43
2023-05-22T22:40:27.135Z,10.55
2023-05-22T22:43:13.155Z,9.43
2023-05-22T22:46:00.756Z,9.93
2023-05-22T22:48:46.915Z,10.68
2023-05-22T22:51:33.858Z,11.63
2023-05-22T22:54:20.648Z,11.23
2023-05-22T22:57:07.795Z,11.27
2023-05-22T22:59:53.932Z,11.38
2023-05-22T23:02:41.099Z,11.27
2023-05-22T23:05:27.210Z,10.50
2023-05-22T23:08:14.642Z,11.02
2023-05-22T23:11:01.105Z,12.57
2023-05-22T23:13:48.888Z,12.20
2023-05-22T23:16:42.274Z,11.50
2023-05-22T23:19:31.266Z,11.70
2023-05-22T23:22:19.034Z,11.02
2023-05-22T23:25:06.637Z,12.18
2023-05-22T23:27:52.929Z,11.95
2023-05-22T23:30:41.764Z,12.45
2023-05-22T23:33:28.297Z,13.95
2023-05-22T23:36:16.357Z,14.40
2023-05-22T23:39:02.624Z,20.63
2023-05-22T23:41:49.931Z,23.13
2023-05-22T23:44:39.382Z,23.30
2023-05-22T23:47:25.615Z,21.67
2023-05-22T23:50:12.212Z,24.42
2023-05-22T23:52:59.426Z,25.17
2023-05-22T23:55:45.800Z,25.30
2023-05-22T23:58:33.541Z,25.02
